Tiempo atmosférico en la estación meteorológica de Llorac, Tarragona (660 m.)



Fecha
DESCASC
Temp. máxima en grados centígrados (hora)
DESCASC
Temp. mínima en grados centígrados (hora)
DESCASC
Temp. media en grados centígrados
DESCASC
Racha de viento máxima en m/sg (hora)
DESCASC
Velocidad máxima media en intervalos de 10 minutos(hora)
DESCASC
Precipitaciones diarias en mm
DESCASC
Precipitaciones de 00:00 a 06:00 en mm
DESCASC
Precipitaciones de 06:00 a 12:00 en mm
DESCASC
Precipitaciones de 12:00 a 18:00 en mm
DESCASC
Precipitaciones de 18:00 a 24:00 en mm
DESCASC
11-12-2019 8.5 (11:40) -1 (04:00) 3.8 15.28 (16:30) 10.83 (14:20) 0 0 0 0 0
08-12-2019 6.2 (23:50) 2.7 (00:00) 4.4 7.22 (13:00) 5.56 (13:00) 0.2 0.2 0 0 0
07-12-2019 7.1 (12:30) 3.1 (00:00) 5.1 6.67 (08:50) 5 (08:50) 0 0 0 0 0
06-12-2019 9.4 (16:00) 1.2 (00:00) 5.3 5.83 (10:10) 4.72 (10:20) 0 0 0 0 0
05-12-2019 9 (15:50) 5.1 (00:00) 7 6.67 (05:50) 3.61 (06:00) 18.2 4.4 9.4 4.2 0.2
04-12-2019 9.1 (06:00) 1.8 (00:00) 5.5 12.5 (06:00) 5.56 (06:00) 49.6 0 8.8 19.4 21.4
03-12-2019 7.7 (15:00) -1.5 (-00:0) 3.1 8.61 (03:40) 6.11 (03:50) 0 0 0 0 0
02-12-2019 10 (12:30) -1.4 (-00:0) 4.3 6.67 (13:00) 5 (13:40) 0 0 0 0 0
01-12-2019 10.7 (00:30) -0.6 (-00:0) 5 12.5 (02:30) 8.33 (02:30) 0 0 0 0 0
30-11-2019 15.5 (16:10) -0.6 (-00:0) 7.4 5.83 (12:50) 4.44 (12:50) 0 0 0 0 0
29-11-2019 14.6 (14:20) 0.4 (00:00) 7.5 13.06 (15:30) 8.89 (15:50) 0 0 0 0 0
28-11-2019 12.9 (14:30) 4.6 (00:00) 8.7 12.78 (10:40) 9.44 (10:30) 0 0 0 0 0
27-11-2019 12.6 (15:40) 4.6 (00:00) 8.6 15 (10:10) 11.11 (10:10) 0 0 0 0 0
26-11-2019 12.8 (14:30) -0.3 (00:00) 6.3 10.28 (14:30) 7.78 (13:50) 0 0 0 0 0
25-11-2019 11.7 (14:50) 3 (23:50) 7.3 11.39 (13:40) 8.61 (13:00) 0 0 0 0 0
24-11-2019 9.9 (14:50) 4.1 (00:00) 7 14.17 (00:10) 10.28 (14:00) 0 0 0 0 0
23-11-2019 11.2 (00:10) 3.9 (00:00) 7.5 18.06 (15:20) 12.5 (16:20) 1.8 1.8 0 0 0
22-11-2019 11.7 (13:00) -1.1 (-00:0) 5.3 12.78 (15:00) 5.56 (11:40) 16.2 0 0 2.6 13.6
21-11-2019 9.2 (15:20) -2.7 (-00:0) 3.2 9.17 (14:20) 6.11 (14:10) 0 0 0 0 0
20-11-2019 9.7 (13:10) -5.5 (03:50) 2.1 5 (11:30) 3.61 (12:20) 0 0 0 0 0
19-11-2019 7.2 (15:10) -4.8 (-00:0) 1.2 9.17 (10:40) 6.94 (10:40) 0 0 0 0 0
18-11-2019 7.3 (12:00) -0.7 (-00:0) 3.3 9.17 (03:40) 6.11 (05:10) 0 0 0 0 0
17-11-2019 8.3 (15:10) 1.1 (00:00) 4.7 11.67 (09:50) 8.61 (09:50) 0 0 0 0 0
16-11-2019 4.1 (13:10) 0.5 (00:00) 2.3 13.61 (19:20) 8.33 (16:00) 0 0 0 0 0
15-11-2019 6.2 (13:30) -2.2 (-00:0) 2 10.83 (13:40) 7.5 (22:20) 0 0 0 0 0

Gráficas

Temp. máximas Temp. mínimas Temp. medias Precipitaciones Rachas de viento máximas Velocidades máximas media en intervalos de 10 minutos

Datos horarios

Fecha y hora oficial Temperatura (ºC) Velocidad del viento (km/h) Dirección del viento Racha (km/h) Dirección de racha Precipitación (mm) Presión (hPa) Tendencia (hPa) Humedad (%)
2019-12-14 23:00:00 6.1 5 Noroeste 15 Noroeste 0 -- -- 87
2019-12-14 22:00:00 3.2 0 Calma 5 Sudeste 0 -- -- 94
2019-12-14 21:00:00 4.6 3 Sudeste 6 Sudeste 0 -- -- 93
2019-12-14 20:00:00 6.4 0 Calma 15 Noroeste 0 -- -- 86
2019-12-14 19:00:00 8.6 13 Noroeste 23 Noroeste 0 -- -- 79
2019-12-14 18:00:00 9.4 15 Noroeste 35 Oeste 0 -- -- 77
2019-12-14 17:00:00 10.6 26 Noroeste 38 Noroeste 0 -- -- 73
2019-12-14 16:00:00 10.8 25 Noroeste 39 Noroeste 0 -- -- 72
2019-12-14 15:00:00 10.7 25 Noroeste 48 Oeste 0 -- -- 73
2019-12-14 14:00:00 10.4 33 Noroeste 47 Oeste 0 -- -- 73
2019-12-14 13:00:00 9.9 31 Noroeste 47 Noroeste 0 -- -- 77
2019-12-14 12:00:00 9.1 28 Noroeste 49 Oeste 0 -- -- 79
2019-12-14 11:00:00 8.7 36 Noroeste 50 Noroeste 0 -- -- 80
2019-12-14 10:00:00 8.6 32 Noroeste 52 Oeste 0 -- -- 79
2019-12-14 09:00:00 8.5 22 Noroeste 33 Oeste 0 -- -- 81
2019-12-14 08:00:00 7.8 18 Noroeste 29 Noroeste 0 -- -- 86
2019-12-14 07:00:00 7.9 15 Noroeste 41 Noroeste 0 -- -- 87
2019-12-14 06:00:00 8.6 30 Noroeste 45 Noroeste 0 -- -- 86
2019-12-14 05:00:00 9.3 29 Noroeste 49 Noroeste 0 -- -- 84
2019-12-14 04:00:00 9.8 33 Noroeste 60 Noroeste 0 -- -- 85
2019-12-14 03:00:00 10.4 36 Noroeste 63 Noroeste 0 -- -- 84
2019-12-14 02:00:00 10.8 36 Noroeste 59 Noroeste 0 -- -- 84
2019-12-14 01:00:00 11.1 36 Noroeste 72 Noroeste 0 -- -- 83
2019-12-14 00:00:00 11.6 35 Noroeste 55 Noroeste 0 -- -- 78
2019-12-13 23:00:00 11.3 37 Noroeste 62 Oeste 0 -- -- 82
2019-12-13 22:00:00 11.4 42 Noroeste 68 Noroeste 0 -- -- 87
2019-12-13 21:00:00 11.3 40 Noroeste 67 Oeste 0 -- -- 88
2019-12-13 20:00:00 11.5 35 Noroeste 63 Noroeste 0 -- -- 86
2019-12-13 19:00:00 11.5 35 Noroeste 70 Oeste 0 -- -- 84
2019-12-13 18:00:00 11.8 35 Noroeste 60 Noroeste 0 -- -- 82
2019-12-13 17:00:00 12.4 41 Noroeste 67 Noroeste 0 -- -- 78
2019-12-13 16:00:00 13.4 50 Noroeste 87 Noroeste 0 -- -- 76
2019-12-13 15:00:00 13.1 53 Noroeste 85 Oeste 0 -- -- 77
2019-12-13 14:00:00 13.4 57 Noroeste 100 Oeste 0 -- -- 77
2019-12-13 13:00:00 12.9 59 Noroeste 93 Noroeste 0 -- -- 80
2019-12-13 12:00:00 12.5 53 Noroeste 82 Oeste 0 -- -- 84
2019-12-13 11:00:00 11.6 53 Oeste 80 Noroeste 0 -- -- 88
2019-12-13 10:00:00 10.7 41 Noroeste 67 Noroeste 0 -- -- 91
2019-12-13 09:00:00 10.2 35 Noroeste 60 Noroeste 0 -- -- 95
2019-12-13 08:00:00 9.6 35 Noroeste 64 Oeste 0 -- -- 98
2019-12-13 07:00:00 9.1 33 Noroeste 59 Oeste 0 -- -- 100
2019-12-13 06:00:00 8.2 30 Noroeste 48 Noroeste 0.2 -- -- 100
2019-12-13 05:00:00 7.7 31 Noroeste 46 Noroeste 0 -- -- 100
2019-12-13 04:00:00 6.8 24 Noroeste 38 Oeste 0 -- -- 100
2019-12-13 03:00:00 6.3 26 Noroeste 42 Noroeste 0 -- -- 100
2019-12-13 02:00:00 5.9 28 Noroeste 42 Noroeste 0 -- -- 100
2019-12-13 01:00:00 5.8 27 Noroeste 42 Noroeste 0 -- -- 100
2019-12-13 00:00:00 5.7 29 Noroeste 49 Noroeste 0 -- -- 100
2019-12-12 23:00:00 5.6 30 Noroeste 54 Noroeste 0 -- -- 100
2019-12-12 22:00:00 5.4 38 Noroeste 57 Noroeste 0.2 -- -- 100
2019-12-12 21:00:00 5.1 34 Noroeste 53 Noroeste 0 -- -- 100
2019-12-12 20:00:00 5.2 34 Noroeste 47 Noroeste 0.6 -- -- 100
2019-12-12 19:00:00 5.3 30 Noroeste 46 Oeste 1.2 -- -- 100
2019-12-12 18:00:00 5.7 32 Noroeste 48 Noroeste 0.4 -- -- 95
2019-12-12 17:00:00 5.9 23 Noroeste 36 Noroeste 0 -- -- 93
2019-12-12 16:00:00 6.3 24 Noroeste 40 Oeste 0 -- -- 87
2019-12-12 15:00:00 6.9 28 Noroeste 49 Noroeste 0 -- -- 78
2019-12-12 14:00:00 7.3 33 Noroeste 50 Noroeste 0 -- -- 75
2019-12-12 13:00:00 7.4 31 Noroeste 61 Oeste 0 -- -- 74
2019-12-12 12:00:00 6.9 38 Noroeste 56 Noroeste 0 -- -- 77
2019-12-12 11:00:00 5.4 30 Noroeste 42 Oeste 0 -- -- 84
2019-12-12 10:00:00 4.1 16 Noroeste 23 Noroeste 0 -- -- 88
2019-12-12 09:00:00 3.7 15 Noroeste 26 Noroeste 0 -- -- 89
2019-12-12 08:00:00 3.1 9 Noroeste 23 Noroeste 0 -- -- 91
2019-12-12 07:00:00 2.8 13 Noroeste 30 Oeste 0 -- -- 93
2019-12-12 06:00:00 2.9 20 Noroeste 31 Oeste 0 -- -- 91
2019-12-12 05:00:00 3.1 19 Noroeste 37 Noroeste 0 -- -- 90
2019-12-12 04:00:00 3.2 19 Noroeste 31 Noroeste 0 -- -- 91
2019-12-12 03:00:00 3.1 20 Noroeste 35 Noroeste 0 -- -- 90
2019-12-12 02:00:00 3 15 Noroeste 28 Noroeste 0 -- -- 91
2019-12-12 01:00:00 3.2 13 Noroeste 37 Noroeste 0 -- -- 89
2019-12-12 00:00:00 3.7 18 Noroeste 33 Noroeste 0 -- -- 83
2019-12-11 23:00:00 3.8 21 Noroeste 40 Noroeste 0 -- -- 81
2019-12-11 22:00:00 3.9 22 Noroeste 38 Noroeste 0 -- -- 81
2019-12-11 21:00:00 4.5 27 Noroeste 46 Noroeste 0 -- -- 79
2019-12-11 20:00:00 4.9 26 Noroeste 50 Oeste 0 -- -- 79
2019-12-11 19:00:00 5.6 24 Noroeste 41 Oeste 0 -- -- 80
2019-12-11 18:00:00 6.4 16 Noroeste 39 Noroeste 0 -- -- 86
2019-12-11 17:00:00 6.8 32 Noroeste 55 Noroeste 0 -- -- 92
2019-12-11 16:00:00 6.2 28 Noroeste 50 Oeste 0 -- -- 93
2019-12-11 15:00:00 6.4 29 Noroeste 54 Noroeste 0 -- -- 84
2019-12-11 14:00:00 6.5 32 Noroeste 45 Oeste 0 -- -- 76
2019-12-11 13:00:00 6.9 17 Noroeste 33 Noroeste 0 -- -- 76
2019-12-11 12:00:00 8 24 Noroeste 33 Noroeste 0 -- -- 70
2019-12-11 11:00:00 7.9 15 Noroeste 21 Noroeste 0 -- -- 71
2019-12-11 10:00:00 3.7 10 Noroeste 14 Noroeste 0 -- -- 94
2019-12-11 09:00:00 -0.4 5 Sudeste 6 Sudeste 0 -- -- 100
2019-12-11 08:00:00 -0.5 4 Sudeste 6 Sudeste 0 -- -- 100
2019-12-11 07:00:00 0.2 5 Sudeste 7 Sudeste 0 -- -- 100
2019-12-11 06:00:00 0.6 5 Sudeste 7 Sudeste 0 -- -- 100
2019-12-11 05:00:00 -0.3 5 Sudeste 9 Sudeste 0 -- -- 100
2019-12-11 04:00:00 -1 5 Sudeste 8 Sudeste 0 -- -- 100
2019-12-11 03:00:00 -0.7 6 Sudeste 9 Sudeste 0 -- -- 100
2019-12-11 02:00:00 -0.3 0 Calma 8 Sudeste 0 -- -- 100
2019-12-11 01:00:00 -0.1 3 Sudeste 9 Sudeste 0 -- -- 100
2019-12-11 00:00:00 -0.1 5 Sudeste 9 Sudeste 0 -- -- 100
2019-12-10 23:00:00 -0.2 3 Sudeste 9 Sudeste 0 -- -- 100
2019-12-10 22:00:00 0 3 Sudeste 9 Sudeste 0 -- -- 98
2019-12-10 21:00:00 1.1 4 Sudeste 8 Sudeste 0 -- -- 95
2019-12-10 20:00:00 3.3 4 Noroeste 16 Noroeste 0 -- -- 92
2019-12-10 19:00:00 5.1 11 Noroeste 17 Noroeste 0 -- -- 87
2019-12-10 18:00:00 6 7 Noroeste 24 Noroeste 0 -- -- 84
2019-12-10 17:00:00 7.3 21 Noroeste 31 Noroeste 0 -- -- 80
2019-12-10 16:00:00 8.5 22 Noroeste 39 Noroeste 0 -- -- 75
2019-12-10 15:00:00 7.4 29 Noroeste 38 Noroeste 0 -- -- 79
2019-12-10 14:00:00 7 25 Noroeste 34 Noroeste 0 -- -- 79
2019-12-10 13:00:00 6.8 21 Noroeste 39 Noroeste 0 -- -- 80
2019-12-10 12:00:00 6.4 25 Noroeste 36 Noroeste 0 -- -- 82
2019-12-10 11:00:00 6.3 23 Noroeste 35 Oeste 0 -- -- 82
2019-12-10 10:00:00 4.2 20 Noroeste 33 Oeste 0 -- -- 91
2019-12-10 09:00:00 3.8 21 Noroeste 30 Noroeste 0 -- -- 91
2019-12-10 08:00:00 3.1 4 Noroeste 23 Noroeste 0 -- -- 92
2019-12-10 07:00:00 3.4 18 Noroeste 27 Noroeste 0 -- -- 92
2019-12-10 06:00:00 3.5 17 Noroeste 35 Noroeste 0 -- -- 94
2019-12-10 05:00:00 3.8 24 Noroeste 48 Noroeste 0 -- -- 94
2019-12-10 04:00:00 4.2 29 Noroeste 46 Noroeste 0 -- -- 92
2019-12-10 03:00:00 4.4 28 Noroeste 47 Oeste 0 -- -- 91
2019-12-10 02:00:00 4.6 28 Noroeste 57 Oeste 0 -- -- 92
2019-12-10 01:00:00 4.8 35 Noroeste 59 Noroeste 0 -- -- 91
2019-12-10 00:00:00 4.8 36 Noroeste 57 Noroeste 0 -- -- 90
2019-12-09 23:00:00 4.9 29 Noroeste 57 Noroeste 0 -- -- 89
2019-12-09 22:00:00 5.1 29 Noroeste 46 Noroeste 0 -- -- 87
2019-12-09 21:00:00 5.3 22 Noroeste 41 Noroeste 0 -- -- 86
2019-12-09 20:00:00 6 26 Noroeste 50 Noroeste 0 -- -- 81
2019-12-09 19:00:00 6.7 28 Noroeste 45 Noroeste 0 -- -- 79
2019-12-09 18:00:00 7.4 30 Noroeste 53 Noroeste 0 -- -- 79
2019-12-09 17:00:00 8.4 39 Noroeste 58 Oeste 0 -- -- 79
2019-12-09 16:00:00 9.6 41 Noroeste 59 Noroeste 0 -- -- 75
2019-12-09 15:00:00 9.6 38 Noroeste 54 Noroeste 0 -- -- 77
2019-12-09 14:00:00 8.8 36 Noroeste 54 Oeste 0 -- -- 78
2019-12-09 13:00:00 8.2 30 Noroeste 54 Noroeste 0 -- -- 81
2019-12-09 12:00:00 8 35 Noroeste 54 Noroeste 0 -- -- 83
2019-12-09 11:00:00 6.9 38 Noroeste 52 Noroeste 0 -- -- 85
2019-12-09 10:00:00 5.4 28 Noroeste 40 Noroeste 0 -- -- 94
2019-12-09 09:00:00 4.4 23 Noroeste 44 Noroeste 0 -- -- 100
2019-12-09 08:00:00 4.3 22 Noroeste 42 Noroeste 0 -- -- 100
2019-12-09 07:00:00 3.8 26 Noroeste 38 Oeste 0 -- -- 100
2019-12-09 06:00:00 4.1 23 Noroeste 33 Noroeste 0 -- -- 100
2019-12-09 05:00:00 5 19 Noroeste 41 Noroeste 0 -- -- 100
2019-12-09 04:00:00 5.9 22 Noroeste 35 Oeste 0 -- -- 100
2019-12-09 03:00:00 6.3 21 Noroeste 35 Noroeste 0 -- -- 100
2019-12-09 02:00:00 6.9 14 Noroeste 32 Noroeste 0 -- -- 100
2019-12-09 01:00:00 7 21 Noroeste 29 Noroeste 0 -- -- 100
2019-12-09 00:00:00 6.2 10 Noroeste 22 Noroeste 0 -- -- 100
2019-12-08 23:00:00 6 16 Noroeste 24 Noroeste 0 -- -- 100
2019-12-08 22:00:00 5.4 10 Noroeste 21 Oeste 0 -- -- 100
2019-12-08 21:00:00 5.1 6 Noroeste 14 Oeste 0 -- -- 100
2019-12-08 20:00:00 4.9 9 Noroeste 19 Oeste 0 -- -- 100
2019-12-08 19:00:00 4.4 7 Noroeste 13 Noroeste 0 -- -- 100
2019-12-08 18:00:00 4.7 10 Noroeste 18 Noroeste 0 -- -- 100
2019-12-08 17:00:00 4.9 11 Noroeste 20 Noroeste 0 -- -- 100
2019-12-08 16:00:00 4.9 10 Noroeste 21 Noroeste 0 -- -- 100
2019-12-08 15:00:00 4.8 18 Noroeste 24 Noroeste 0 -- -- 100
2019-12-08 14:00:00 4.6 13 Noroeste 24 Oeste 0 -- -- 100
2019-12-08 13:00:00 4.6 20 Noroeste 26 Noroeste 0 -- -- 100
2019-12-08 12:00:00 4.8 18 Noroeste 24 Oeste 0 -- -- 100
2019-12-08 11:00:00 4.7 15 Noroeste 23 Noroeste 0 -- -- 100
2019-12-08 10:00:00 4.6 16 Noroeste 22 Oeste 0 -- -- 100
2019-12-08 09:00:00 4.4 13 Noroeste 23 Oeste 0 -- -- 100
2019-12-08 08:00:00 4.2 15 Noroeste 22 Oeste 0 -- -- 100
2019-12-08 07:00:00 4.3 11 Noroeste 19 Noroeste 0 -- -- 100
2019-12-08 06:00:00 4.3 13 Noroeste 18 Noroeste 0 -- -- 100
2019-12-08 05:00:00 3.9 11 Noroeste 14 Noroeste 0.2 -- -- 100
2019-12-08 04:00:00 3.1 5 Noroeste 15 Noroeste 0 -- -- 100
2019-12-08 03:00:00 2.8 0 Calma 9 Noroeste 0 -- -- 100
2019-12-08 02:00:00 3.4 4 Norte 7 Norte 0 -- -- 100
2019-12-08 01:00:00 4.4 6 Noroeste 13 Noroeste 0 -- -- 100
2019-12-08 00:00:00 4.6 7 Noroeste 12 Oeste 0 -- -- 100
2019-12-07 23:00:00 4.6 9 Noroeste 16 Noroeste 0 -- -- 100
2019-12-07 22:00:00 4.8 7 Noroeste 11 Noroeste 0 -- -- 100
2019-12-07 21:00:00 5 6 Noroeste 12 Noroeste 0 -- -- 100
2019-12-07 20:00:00 5.2 4 Noroeste 10 Noroeste 0 -- -- 100
2019-12-07 19:00:00 5.4 4 Oeste 14 Noroeste 0 -- -- 100
2019-12-07 18:00:00 5.7 6 Noroeste 15 Oeste 0 -- -- 100
2019-12-07 17:00:00 6.1 11 Noroeste 15 Noroeste 0 -- -- 100
2019-12-07 16:00:00 6.4 9 Oeste 14 Oeste 0 -- -- 100
2019-12-07 15:00:00 6.6 10 Noroeste 14 Oeste 0 -- -- 100
2019-12-07 14:00:00 6.8 10 Oeste 17 Noroeste 0 -- -- 100
2019-12-07 13:00:00 7 12 Oeste 18 Oeste 0 -- -- 100
2019-12-07 12:00:00 6.9 8 Oeste 15 Oeste 0 -- -- 100
2019-12-07 11:00:00 6.2 10 Oeste 15 Noroeste 0 -- -- 100
2019-12-07 10:00:00 5.8 10 Noroeste 24 Noroeste 0 -- -- 100
2019-12-07 09:00:00 5.8 17 Noroeste 24 Oeste 0 -- -- 100
2019-12-07 08:00:00 5.9 14 Noroeste 20 Oeste 0 -- -- 100
2019-12-07 07:00:00 6.2 12 Noroeste 18 Noroeste 0 -- -- 100
2019-12-07 06:00:00 6.4 8 Noroeste 13 Oeste 0 -- -- 100
2019-12-07 05:00:00 5.9 6 Noroeste 15 Noroeste 0 -- -- 100
2019-12-07 04:00:00 6.4 14 Noroeste 18 Oeste 0 -- -- 100
2019-12-07 03:00:00 5.6 5 Noroeste 10 Noroeste 0 -- -- 100
2019-12-07 02:00:00 5 0 Calma 5 Sudeste 0 -- -- 100
2019-12-07 01:00:00 3.7 4 Sudeste 8 Sudeste 0 -- -- 100
2019-12-07 00:00:00 3.1 3 Sudeste 8 Sudeste 0 -- -- 100
2019-12-06 23:00:00 3.1 0 Calma 8 Sudeste 0 -- -- 100
2019-12-06 22:00:00 2.2 4 Sudeste 8 Sudeste 0 -- -- 100
2019-12-06 21:00:00 1.2 5 Sudeste 8 Sudeste 0 -- -- 100
2019-12-06 20:00:00 2.4 3 Sudeste 6 Sudeste 0 -- -- 100
2019-12-06 19:00:00 3.7 3 Sudeste 5 Sudeste 0 -- -- 99
2019-12-06 18:00:00 5.6 0 Calma 5 Este 0 -- -- 97
2019-12-06 17:00:00 7.6 0 Calma 10 Oeste 0 -- -- 93
2019-12-06 16:00:00 9.4 8 Oeste 21 Noroeste 0 -- -- 91
2019-12-06 15:00:00 9.1 13 Noroeste 20 Noroeste 0 -- -- 93
2019-12-06 14:00:00 8.7 12 Noroeste 16 Noroeste 0 -- -- 100
2019-12-06 13:00:00 7.7 12 Noroeste 16 Oeste 0 -- -- 100
2019-12-06 12:00:00 7.5 11 Oeste 15 Oeste 0 -- -- 100
2019-12-06 11:00:00 6.7 10 Oeste 21 Oeste 0 -- -- 100
2019-12-06 10:00:00 5.1 2 Noroeste 6 Sudeste 0 -- -- 100
2019-12-06 09:00:00 3 4 Sudeste 6 Sudeste 0 -- -- 100
2019-12-06 08:00:00 3.4 4 Sudeste 6 Sudeste 0 -- -- 100
2019-12-06 07:00:00 4.5 3 Este 6 Sudeste 0 -- -- 100
2019-12-06 06:00:00 5.8 0 Calma 8 Sudeste 0 -- -- 100
2019-12-06 05:00:00 6 0 Calma 4 Este 0 -- -- 100
2019-12-06 04:00:00 6.1 2 Este 5 Sudeste 0 -- -- 100
2019-12-06 03:00:00 6.2 2 Noroeste 5 Nordeste 0 -- -- 100
2019-12-06 02:00:00 6.4 4 Oeste 8 Noroeste 0 -- -- 100
2019-12-06 01:00:00 6.6 4 Noroeste 10 Oeste 0 -- -- 100
2019-12-06 00:00:00 6.3 5 Sudeste 8 Sudeste 0 -- -- 100
2019-12-05 23:00:00 6.4 5 Sudeste 10 Sudeste 0 -- -- 100
2019-12-05 22:00:00 5.7 5 Sudeste 9 Sudeste 0 -- -- 100
2019-12-05 21:00:00 5.6 5 Sudeste 7 Sudeste 0 -- -- 98
2019-12-05 20:00:00 6.8 3 Sudeste 9 Sudeste 0 -- -- 98
2019-12-05 19:00:00 7.2 5 Sudeste 12 Este 0.2 -- -- 96
2019-12-05 18:00:00 8 5 Este 18 Este 0 -- -- 94
2019-12-05 17:00:00 8.4 8 Este 18 Nordeste 0.2 -- -- 92
2019-12-05 16:00:00 9 6 Nordeste 14 Nordeste 0.4 -- -- 91
2019-12-05 15:00:00 8.7 5 Nordeste 11 Norte 1.2 -- -- 96
2019-12-05 14:00:00 8.3 5 Noroeste 10 Noroeste 1.2 -- -- 98
2019-12-05 13:00:00 8.1 5 Noroeste 14 Noroeste 1.2 -- -- 99
2019-12-05 12:00:00 8.1 5 Noroeste 10 Noroeste 1.6 -- -- 97
2019-12-05 11:00:00 8.1 2 Oeste 7 Nordeste 2.4 -- -- 96
2019-12-05 10:00:00 7.8 2 Noroeste 11 Sudeste 1.4 -- -- 97
2019-12-05 09:00:00 7.6 7 Sudeste 17 Este 1.4 -- -- 95
2019-12-05 08:00:00 7.6 6 Este 18 Este 1.2 -- -- 96
2019-12-05 07:00:00 7.6 7 Este 21 Este 1.4 -- -- 97
2019-12-05 06:00:00 7.6 13 Este 24 Este 0.4 -- -- 96
2019-12-05 05:00:00 7.5 8 Este 22 Este 0.2 -- -- 96
2019-12-05 04:00:00 7.3 5 Este 15 Este 0.6 -- -- 96
2019-12-05 03:00:00 7.3 7 Sudeste 22 Este 1 -- -- 96
2019-12-05 02:00:00 7.5 8 Este 21 Nordeste 0.8 -- -- 94
2019-12-05 01:00:00 7.4 7 Este 20 Este 1.4 -- -- 95
2019-12-05 00:00:00 7.1 8 Sudeste 27 Este 4 -- -- 94
2019-12-04 23:00:00 7.5 8 Este 29 Este 3 -- -- 97
2019-12-04 22:00:00 7.7 13 Este 28 Este 1.2 -- -- 95
2019-12-04 21:00:00 7.6 12 Este 22 Sudeste 3 -- -- 96
2019-12-04 20:00:00 7.7 14 Sudeste 30 Este 3.8 -- -- 97
2019-12-04 19:00:00 7.4 10 Este 20 Este 6.4 -- -- 97
2019-12-04 18:00:00 7.4 6 Sudeste 27 Sudeste 3.2 -- -- 95
2019-12-04 17:00:00 7.7 17 Sudeste 36 Este 5 -- -- 95
2019-12-04 16:00:00 7.8 12 Este 30 Sudeste 4.8 -- -- 94
2019-12-04 15:00:00 8.3 13 Este 36 Este 1.6 -- -- 92
2019-12-04 14:00:00 8.2 16 Este 35 Este 1.6 -- -- 93
2019-12-04 13:00:00 8.1 9 Este 30 Este 3.2 -- -- 95
2019-12-04 12:00:00 8.1 15 Este 33 Este 3 -- -- 94
2019-12-04 11:00:00 8.1 15 Este 38 Este 4 -- -- 93
2019-12-04 10:00:00 8.1 13 Este 30 Este 1.8 -- -- 93
2019-12-04 09:00:00 8.5 12 Este 35 Este 0 -- -- 87
2019-12-04 08:00:00 8.8 14 Este 44 Este 0 -- -- 83
2019-12-04 07:00:00 8.8 18 Este 37 Este 0 -- -- 84
2019-12-04 06:00:00 9.1 20 Este 45 Este 0 -- -- 83
2019-12-04 05:00:00 9 15 Este 31 Este 0 -- -- 82
2019-12-04 04:00:00 8.7 5 Este 26 Este 0 -- -- 83
2019-12-04 03:00:00 8.8 9 Este 21 Este 0 -- -- 82
2019-12-04 02:00:00 8.4 6 Este 22 Este 0 -- -- 84
2019-12-04 01:00:00 2.6 3 Nordeste 12 Noroeste 0 -- -- 98
2019-12-04 00:00:00 1.8 5 Noroeste 9 Noroeste 0 -- -- 98
2019-12-03 23:00:00 2.4 3 Noroeste 10 Noroeste 0 -- -- 96
2019-12-03 22:00:00 2.7 7 Noroeste 14 Noroeste 0 -- -- 96
2019-12-03 21:00:00 2.4 9 Noroeste 12 Noroeste 0 -- -- 96
2019-12-03 20:00:00 1.7 0 Calma 4 Norte 0 -- -- 97
2019-12-03 19:00:00 1.6 3 Noroeste 6 Norte 0 -- -- 94
2019-12-03 18:00:00 3 4 Norte 12 Noroeste 0 -- -- 91
2019-12-03 17:00:00 4.1 9 Noroeste 13 Noroeste 0 -- -- 88
2019-12-03 16:00:00 5.1 9 Noroeste 15 Oeste 0 -- -- 84
2019-12-03 15:00:00 7.7 5 Este 12 Sudeste 0 -- -- 75
2019-12-03 14:00:00 7.4 4 Sudoeste 13 Oeste 0 -- -- 77
2019-12-03 13:00:00 4.6 8 Oeste 12 Oeste 0 -- -- 87
2019-12-03 12:00:00 2.7 3 Sudoeste 10 Norte 0 -- -- 95
2019-12-03 11:00:00 1.7 8 Nordeste 12 Norte 0 -- -- 99
2019-12-03 10:00:00 1.5 4 Norte 14 Noroeste 0 -- -- 99
2019-12-03 09:00:00 1.4 7 Noroeste 14 Noroeste 0 -- -- 99
2019-12-03 08:00:00 1.5 8 Noroeste 22 Oeste 0 -- -- 99
2019-12-03 07:00:00 1.7 14 Noroeste 26 Noroeste 0 -- -- 98
2019-12-03 06:00:00 1.9 19 Noroeste 28 Oeste 0 -- -- 97
2019-12-03 05:00:00 2.1 17 Noroeste 28 Oeste 0 -- -- 97
2019-12-03 04:00:00 2.4 20 Noroeste 31 Oeste 0 -- -- 98
2019-12-03 03:00:00 3 19 Noroeste 27 Noroeste 0 -- -- 100
2019-12-03 02:00:00 3.2 16 Noroeste 23 Noroeste 0 -- -- 100
2019-12-03 01:00:00 -1.5 4 Noroeste 8 Noroeste 0 -- -- 99
2019-12-03 00:00:00 -1.4 4 Sudeste 8 Sudeste 0 -- -- 99
2019-12-02 23:00:00 -1.4 6 Sudeste 9 Sudeste 0 -- -- 98
2019-12-02 22:00:00 -0.5 5 Este 9 Sudeste 0 -- -- 99
2019-12-02 21:00:00 -1 4 Sudeste 6 Sudeste 0 -- -- 97
2019-12-02 20:00:00 -0.2 5 Sudeste 7 Sudeste 0 -- -- 95
2019-12-02 19:00:00 1.6 4 Sudeste 6 Norte 0 -- -- 93
2019-12-02 18:00:00 4.7 3 Noroeste 10 Noroeste 0 -- -- 86
2019-12-02 17:00:00 7.1 9 Noroeste 20 Noroeste 0 -- -- 75
2019-12-02 16:00:00 9 11 Oeste 21 Noroeste 0 -- -- 78
2019-12-02 15:00:00 9.6 13 Oeste 23 Noroeste 0 -- -- 79
2019-12-02 14:00:00 9 15 Oeste 23 Oeste 0 -- -- 81
2019-12-02 13:00:00 9.9 17 Oeste 24 Oeste 0 -- -- 72
2019-12-02 12:00:00 9.5 13 Oeste 21 Oeste 0 -- -- 74
2019-12-02 11:00:00 8.1 10 Oeste 15 Oeste 0 -- -- 81
2019-12-02 10:00:00 7.1 8 Noroeste 12 Noroeste 0 -- -- 86
2019-12-02 09:00:00 5.7 7 Noroeste 13 Noroeste 0 -- -- 96
2019-12-02 08:00:00 4.3 5 Noroeste 9 Noroeste 0 -- -- 100
2019-12-02 07:00:00 3.7 0 Calma 5 Sudeste 0 -- -- 100
2019-12-02 06:00:00 3.6 3 Este 9 Sudeste 0 -- -- 100
2019-12-02 05:00:00 3.3 0 Calma 6 Sudeste 0 -- -- 100
2019-12-02 04:00:00 2.7 0 Calma 6 Sudeste 0 -- -- 100
2019-12-02 03:00:00 2.1 4 Sudeste 9 Sudeste 0 -- -- 100
2019-12-02 02:00:00 1.3 4 Sudeste 8 Sudeste 0 -- -- 100
2019-12-02 01:00:00 -0.5 4 Sudeste 9 Sudeste 0 -- -- 100
2019-12-02 00:00:00 -0.5 6 Sudeste 8 Sudeste 0 -- -- 99
2019-12-01 23:00:00 0.2 4 Sudeste 8 Sudeste 0 -- -- 99
2019-12-01 22:00:00 -0.4 6 Sudeste 8 Sudeste 0 -- -- 98
2019-12-01 21:00:00 -0.3 5 Sudeste 8 Sudeste 0 -- -- 97
2019-12-01 20:00:00 0.9 3 Sudeste 10 Sudeste 0 -- -- 96
2019-12-01 19:00:00 2.2 4 Este 12 Sudeste 0 -- -- 95
2019-12-01 18:00:00 4.8 5 Este 9 Sudeste 0 -- -- 91
2019-12-01 17:00:00 7.7 5 Noroeste 12 Oeste 0 -- -- 80
2019-12-01 16:00:00 10.5 5 Sudoeste 14 Oeste 0 -- -- 70
2019-12-01 15:00:00 9.6 8 Noroeste 21 Oeste 0 -- -- 75
2019-12-01 14:00:00 9.9 15 Noroeste 21 Noroeste 0 -- -- 71
2019-12-01 13:00:00 10.1 7 Oeste 13 Noroeste 0 -- -- 69
2019-12-01 12:00:00 8.5 10 Oeste 18 Noroeste 0 -- -- 77
2019-12-01 11:00:00 8.6 14 Noroeste 19 Noroeste 0 -- -- 79
2019-12-01 10:00:00 7.1 13 Noroeste 16 Noroeste 0 -- -- 92
2019-12-01 09:00:00 6.1 10 Noroeste 17 Noroeste 0 -- -- 99
2019-12-01 08:00:00 5.3 6 Noroeste 13 Noroeste 0 -- -- 98
2019-12-01 07:00:00 5.2 8 Noroeste 12 Noroeste 0 -- -- 96
2019-12-01 06:00:00 6.7 3 Sudeste 4 Nordeste 0 -- -- 95
2019-12-01 05:00:00 7.8 2 Oeste 22 Noroeste 0 -- -- 95
2019-12-01 04:00:00 8.2 17 Noroeste 29 Oeste 0 -- -- 96
2019-12-01 03:00:00 8.8 21 Noroeste 45 Oeste 0 -- -- 96
2019-12-01 02:00:00 9.7 21 Noroeste 42 Noroeste 0 -- -- 93
2019-12-01 01:00:00 10 9 Noroeste 26 Noroeste 0 -- -- 95
2019-12-01 00:00:00 9.9 4 Sudeste 16 Sur 0 -- -- 90
2019-11-30 23:00:00 10.2 7 Este 19 Oeste 0 -- -- 89
2019-11-30 22:00:00 9.6 7 Sur 17 Sur 0 -- -- 100
2019-11-30 21:00:00 9.2 9 Sudeste 19 Sudeste 0 -- -- 100
2019-11-30 20:00:00 8.4 16 Sudeste 21 Sudeste 0 -- -- 100
2019-11-30 19:00:00 7.1 8 Sudeste 13 Sudeste 0 -- -- 94
2019-11-30 18:00:00 8.8 3 Sudeste 7 Norte 0 -- -- 90
2019-11-30 17:00:00 12.3 0 Calma 6 Oeste 0 -- -- 79
2019-11-30 16:00:00 15.3 5 Noroeste 14 Noroeste 0 -- -- 69
2019-11-30 15:00:00 15 10 Noroeste 19 Noroeste 0 -- -- 69
2019-11-30 14:00:00 14.6 13 Noroeste 19 Oeste 0 -- -- 70
2019-11-30 13:00:00 15 16 Noroeste 21 Noroeste 0 -- -- 69
2019-11-30 12:00:00 14.2 13 Noroeste 16 Noroeste 0 -- -- 73
2019-11-30 11:00:00 13 3 Noroeste 6 Oeste 0 -- -- 76
2019-11-30 10:00:00 8 3 Sudeste 8 Sudeste 0 -- -- 100
2019-11-30 09:00:00 3.1 4 Sudeste 8 Este 0 -- -- 100
2019-11-30 08:00:00 0.4 6 Sudeste 9 Sudeste 0 -- -- 100
2019-11-30 07:00:00 -0.1 6 Sudeste 9 Sudeste 0 -- -- 100
2019-11-30 06:00:00 -0.4 5 Sudeste 8 Sudeste 0 -- -- 100
2019-11-30 05:00:00 -0.4 7 Sudeste 9 Sudeste 0 -- -- 100
2019-11-30 04:00:00 0.1 5 Sudeste 9 Sudeste 0 -- -- 100
2019-11-30 03:00:00 0.1 6 Sudeste 9 Sudeste 0 -- -- 99
2019-11-30 02:00:00 -0.1 7 Sudeste 9 Sudeste 0 -- -- 99
2019-11-30 01:00:00 0.3 6 Sudeste 8 Sudeste 0 -- -- 99
2019-11-30 00:00:00 0.4 6 Sudeste 8 Sudeste 0 -- -- 98
2019-11-29 23:00:00 1.8 5 Sudeste 9 Sudeste 0 -- -- 97
2019-11-29 22:00:00 2.4 6 Sudeste 12 Sudeste 0 -- -- 95
2019-11-29 21:00:00 4.4 8 Sudeste 12 Sudeste 0 -- -- 92
2019-11-29 20:00:00 5.3 5 Sudeste 12 Noroeste 0 -- -- 90
2019-11-29 19:00:00 8.8 6 Noroeste 14 Noroeste 0 -- -- 80
2019-11-29 18:00:00 10.2 0 Calma 29 Oeste 0 -- -- 75
2019-11-29 17:00:00 12.7 20 Noroeste 41 Noroeste 0 -- -- 67
2019-11-29 16:00:00 14 30 Noroeste 47 Noroeste 0 -- -- 62
2019-11-29 15:00:00 14.1 26 Noroeste 42 Noroeste 0 -- -- 64
2019-11-29 14:00:00 13.9 27 Noroeste 40 Oeste 0 -- -- 69
2019-11-29 13:00:00 13 28 Noroeste 42 Oeste 0 -- -- 77
2019-11-29 12:00:00 12.3 27 Noroeste 44 Oeste 0 -- -- 81
2019-11-29 11:00:00 11.4 31 Noroeste 43 Noroeste 0 -- -- 86
2019-11-29 10:00:00 9.2 19 Noroeste 27 Noroeste 0 -- -- 90
2019-11-29 09:00:00 8.9 17 Noroeste 27 Noroeste 0 -- -- 90
2019-11-29 08:00:00 9.3 16 Noroeste 28 Noroeste 0 -- -- 87
2019-11-29 07:00:00 9.6 15 Noroeste 28 Noroeste 0 -- -- 85
2019-11-29 06:00:00 9.3 13 Noroeste 21 Noroeste 0 -- -- 85
2019-11-29 05:00:00 9 13 Noroeste 22 Noroeste 0 -- -- 84
2019-11-29 04:00:00 9.1 12 Noroeste 18 Noroeste 0 -- -- 83
2019-11-29 03:00:00 8.3 6 Noroeste 14 Noroeste 0 -- -- 86
2019-11-29 02:00:00 8.1 5 Noroeste 11 Noroeste 0 -- -- 85
2019-11-29 01:00:00 9.4 9 Noroeste 20 Noroeste 0 -- -- 80
2019-11-29 00:00:00 9.8 13 Noroeste 28 Noroeste 0 -- -- 77
2019-11-28 23:00:00 11 20 Noroeste 37 Oeste 0 -- -- 72
2019-11-28 22:00:00 11.5 19 Noroeste 34 Noroeste 0 -- -- 70
2019-11-28 21:00:00 9.8 6 Noroeste 17 Noroeste 0 -- -- 81
2019-11-28 20:00:00 7.7 0 Calma 5 Nordeste 0 -- -- 91
2019-11-28 19:00:00 7.5 5 Este 8 Sudeste 0 -- -- 92
2019-11-28 18:00:00 9 0 Calma 17 Noroeste 0 -- -- 86
2019-11-28 17:00:00 11.7 10 Noroeste 26 Noroeste 0 -- -- 77
2019-11-28 16:00:00 12.9 19 Noroeste 30 Oeste 0 -- -- 72
2019-11-28 15:00:00 12.5 22 Noroeste 37 Oeste 0 -- -- 72
2019-11-28 14:00:00 12.7 20 Noroeste 40 Oeste 0 -- -- 71
2019-11-28 13:00:00 12.7 21 Oeste 45 Noroeste 0 -- -- 71
2019-11-28 12:00:00 11.6 28 Noroeste 41 Noroeste 0 -- -- 74
2019-11-28 11:00:00 10.3 31 Noroeste 46 Oeste 0 -- -- 78
2019-11-28 10:00:00 10 24 Noroeste 40 Noroeste 0 -- -- 79
2019-11-28 09:00:00 8.4 20 Noroeste 32 Oeste 0 -- -- 83
2019-11-28 08:00:00 8.1 14 Noroeste 22 Noroeste 0 -- -- 83
2019-11-28 07:00:00 7.7 12 Noroeste 21 Noroeste 0 -- -- 86
2019-11-28 06:00:00 7.9 12 Noroeste 21 Oeste 0 -- -- 84
2019-11-28 05:00:00 7.7 14 Noroeste 27 Noroeste 0 -- -- 84
2019-11-28 04:00:00 7.7 20 Noroeste 31 Noroeste 0 -- -- 85
2019-11-28 03:00:00 8 23 Noroeste 33 Noroeste 0 -- -- 83
2019-11-28 02:00:00 8 12 Noroeste 24 Noroeste 0 -- -- 84
2019-11-28 01:00:00 7.1 9 Noroeste 14 Noroeste 0 -- -- 90
2019-11-28 00:00:00 4.6 0 Calma 5 Sudeste 0 -- -- 91
2019-11-27 23:00:00 6.8 0 Calma 15 Oeste 0 -- -- 84
2019-11-27 22:00:00 9.6 12 Noroeste 28 Noroeste 0 -- -- 73
2019-11-27 21:00:00 10.3 20 Noroeste 28 Noroeste 0 -- -- 69
2019-11-27 20:00:00 10.3 22 Noroeste 35 Noroeste 0 -- -- 70
2019-11-27 19:00:00 10.6 22 Noroeste 36 Noroeste 0 -- -- 67
2019-11-27 18:00:00 10.5 17 Noroeste 35 Oeste 0 -- -- 68
2019-11-27 17:00:00 11.6 26 Noroeste 42 Oeste 0 -- -- 63
2019-11-27 16:00:00 12.5 23 Noroeste 37 Noroeste 0 -- -- 60
2019-11-27 15:00:00 12.4 26 Noroeste 37 Noroeste 0 -- -- 66
2019-11-27 14:00:00 12 31 Oeste 50 Oeste 0 -- -- 66
2019-11-27 06:00:00 10.4 14 Noroeste 29 Noroeste 0 -- -- 81
2019-11-27 05:00:00 10.9 10 Noroeste 21 Noroeste 0 -- -- 80
2019-11-27 04:00:00 9.7 5 Noroeste 18 Noroeste 0 -- -- 90
2019-11-27 03:00:00 9.2 10 Noroeste 21 Noroeste 0 -- -- 93
2019-11-27 02:00:00 5.7 6 Sudeste 11 Sudeste 0 -- -- 100
2019-11-27 01:00:00 6.2 3 Sudeste 7 Sudeste 0 -- -- 99
2019-11-27 00:00:00 6.6 3 Sudeste 6 Sudeste 0 -- -- 99
2019-11-26 23:00:00 6.2 5 Sudeste 9 Sudeste 0 -- -- 99
2019-11-26 22:00:00 5.1 6 Sudeste 9 Sudeste 0 -- -- 99
2019-11-26 21:00:00 5.2 5 Sudeste 9 Sudeste 0 -- -- 98
2019-11-26 20:00:00 5.4 5 Sudeste 8 Sudeste 0 -- -- 96
2019-11-26 19:00:00 6.7 3 Sudeste 8 Sudeste 0 -- -- 93
2019-11-26 18:00:00 8.8 5 Nordeste 12 Noroeste 0 -- -- 88
2019-11-26 17:00:00 11.5 7 Noroeste 19 Noroeste 0 -- -- 78
2019-11-26 16:00:00 12 11 Noroeste 26 Noroeste 0 -- -- 76
2019-11-26 15:00:00 12.3 19 Noroeste 37 Noroeste 0 -- -- 74
2019-11-26 14:00:00 12.6 26 Noroeste 37 Noroeste 0 -- -- 74
2019-11-26 13:00:00 12.5 22 Noroeste 31 Noroeste 0 -- -- 75
2019-11-26 12:00:00 11.8 17 Noroeste 30 Noroeste 0 -- -- 78
2019-11-26 11:00:00 10.9 19 Noroeste 30 Oeste 0 -- -- 82
2019-11-26 10:00:00 7.8 5 Noroeste 12 Noroeste 0 -- -- 100
2019-11-26 09:00:00 2.2 7 Sudeste 9 Sudeste 0 -- -- 100
2019-11-26 08:00:00 0.2 5 Sudeste 9 Sudeste 0 -- -- 100
2019-11-26 07:00:00 0.1 5 Sudeste 8 Sudeste 0 -- -- 100
2019-11-26 06:00:00 -0.2 5 Sudeste 9 Sudeste 0 -- -- 100
2019-11-26 05:00:00 0.3 8 Sudeste 9 Sudeste 0 -- -- 100
2019-11-26 04:00:00 1.3 4 Sudeste 8 Sudeste 0 -- -- 100
2019-11-26 03:00:00 1.9 6 Sudeste 8 Sudeste 0 -- -- 100
2019-11-26 02:00:00 2.3 6 Sudeste 9 Sudeste 0 -- -- 100
2019-11-26 01:00:00 2.6 6 Sudeste 9 Sudeste 0 -- -- 100
2019-11-26 00:00:00 3 6 Sudeste 9 Sudeste 0 -- -- 100
2019-11-25 23:00:00 3.6 5 Sudeste 9 Sudeste 0 -- -- 100
2019-11-25 22:00:00 4.2 2 Sudeste 5 Sudeste 0 -- -- 99
2019-11-25 21:00:00 4.9 0 Calma 7 Norte 0 -- -- 99
2019-11-25 20:00:00 4.8 0 Calma 6 Sudeste 0 -- -- 97
2019-11-25 19:00:00 6 3 Sudeste 8 Sudeste 0 -- -- 96
2019-11-25 18:00:00 7.7 4 Sudeste 15 Noroeste 0 -- -- 90
2019-11-25 17:00:00 10.5 13 Noroeste 28 Noroeste 0 -- -- 84
2019-11-25 16:00:00 11 23 Noroeste 37 Oeste 0 -- -- 80
2019-11-25 15:00:00 11.5 25 Noroeste 38 Noroeste 0 -- -- 77
2019-11-25 14:00:00 11.2 27 Noroeste 41 Oeste 0 -- -- 78
2019-11-25 13:00:00 10.5 31 Noroeste 38 Noroeste 0 -- -- 79
2019-11-25 12:00:00 10.1 25 Noroeste 37 Noroeste 0 -- -- 78
2019-11-25 11:00:00 9.6 27 Noroeste 36 Noroeste 0 -- -- 80
2019-11-25 10:00:00 8 27 Noroeste 35 Noroeste 0 -- -- 86
2019-11-25 09:00:00 5.9 15 Noroeste 21 Noroeste 0 -- -- 94
2019-11-25 08:00:00 3.9 9 Noroeste 14 Noroeste 0 -- -- 98
2019-11-25 07:00:00 4.1 8 Noroeste 22 Noroeste 0 -- -- 96
2019-11-25 06:00:00 3.7 6 Noroeste 21 Noroeste 0 -- -- 95
2019-11-25 05:00:00 4.1 12 Noroeste 21 Noroeste 0 -- -- 95
2019-11-25 04:00:00 4.4 16 Noroeste 26 Oeste 0 -- -- 91
2019-11-25 03:00:00 4.7 18 Noroeste 28 Noroeste 0 -- -- 90
2019-11-25 02:00:00 5 16 Noroeste 25 Noroeste 0 -- -- 89
2019-11-25 01:00:00 4.7 13 Noroeste 22 Noroeste 0 -- -- 87
2019-11-25 00:00:00 4.1 10 Noroeste 16 Noroeste 0 -- -- 90
2019-11-24 23:00:00 5.2 13 Noroeste 20 Noroeste 0 -- -- 87
2019-11-24 22:00:00 5.5 13 Noroeste 23 Noroeste 0 -- -- 86
2019-11-24 21:00:00 6 11 Noroeste 22 Noroeste 0 -- -- 85
2019-11-24 20:00:00 6.4 10 Oeste 24 Noroeste 0 -- -- 84
2019-11-24 19:00:00 6.7 14 Noroeste 30 Noroeste 0 -- -- 83
2019-11-24 18:00:00 7.5 17 Noroeste 39 Oeste 0 -- -- 81
2019-11-24 17:00:00 8.3 24 Noroeste 37 Oeste 0 -- -- 78
2019-11-24 16:00:00 8.8 28 Noroeste 48 Noroeste 0 -- -- 75
2019-11-24 15:00:00 9.6 37 Noroeste 51 Noroeste 0 -- -- 71
2019-11-24 14:00:00 9.5 37 Noroeste 49 Noroeste 0 -- -- 72
2019-11-24 13:00:00 8.9 31 Noroeste 45 Noroeste 0 -- -- 73
2019-11-24 12:00:00 8 28 Noroeste 41 Noroeste 0 -- -- 77
2019-11-24 11:00:00 6.4 33 Noroeste 48 Noroeste 0 -- -- 82
2019-11-24 10:00:00 5.6 35 Noroeste 44 Oeste 0 -- -- 86
2019-11-24 09:00:00 4.8 28 Noroeste 37 Noroeste 0 -- -- 90
2019-11-24 08:00:00 4.2 27 Noroeste 45 Noroeste 0 -- -- 92
2019-11-24 07:00:00 4.3 31 Noroeste 46 Oeste 0 -- -- 92
2019-11-24 06:00:00 4.6 28 Noroeste 46 Noroeste 0 -- -- 91
2019-11-24 05:00:00 4.8 32 Noroeste 50 Oeste 0 -- -- 91
2019-11-24 04:00:00 4.7 30 Noroeste 51 Noroeste 0 -- -- 91
2019-11-24 03:00:00 4.5 30 Noroeste 44 Noroeste 0 -- -- 93
2019-11-24 02:00:00 4.7 30 Noroeste 45 Noroeste 0 -- -- 92
2019-11-24 01:00:00 4.9 26 Noroeste 51 Noroeste 0 -- -- 91
2019-11-24 00:00:00 5.1 32 Noroeste 52 Noroeste 0 -- -- 90
2019-11-23 23:00:00 5.1 31 Noroeste 53 Noroeste 0 -- -- 89
2019-11-23 22:00:00 5.4 29 Noroeste 52 Noroeste 0 -- -- 87
2019-11-23 21:00:00 5.9 37 Noroeste 60 Noroeste 0 -- -- 85
2019-11-23 20:00:00 6 33 Noroeste 53 Oeste 0 -- -- 83
2019-11-23 19:00:00 6.4 29 Noroeste 53 Oeste 0 -- -- 86
2019-11-23 18:00:00 6.5 37 Noroeste 62 Noroeste 0 -- -- 85
2019-11-23 17:00:00 6.9 40 Noroeste 65 Noroeste 0 -- -- 84
2019-11-23 16:00:00 7.4 44 Noroeste 65 Oeste 0 -- -- 83
2019-11-23 15:00:00 7.2 37 Noroeste 64 Oeste 0 -- -- 85
2019-11-23 14:00:00 7 41 Noroeste 64 Oeste 0 -- -- 88
2019-11-23 13:00:00 6.5 40 Noroeste 64 Oeste 0 -- -- 92
2019-11-23 12:00:00 7 40 Noroeste 61 Noroeste 0 -- -- 89
2019-11-23 11:00:00 7.5 30 Noroeste 50 Oeste 0 -- -- 84
2019-11-23 10:00:00 7.5 31 Noroeste 42 Noroeste 0 -- -- 84
2019-11-23 09:00:00 6.9 18 Noroeste 28 Noroeste 0 -- -- 89
2019-11-23 08:00:00 5.1 7 Noroeste 16 Noroeste 0 -- -- 100
2019-11-23 07:00:00 5.2 2 Noroeste 13 Noroeste 0 -- -- 100
2019-11-23 06:00:00 5.2 3 Sur 7 Sur 0.2 -- -- 100
2019-11-23 05:00:00 4.3 2 Nordeste 6 Este 0.6 -- -- 100
2019-11-23 04:00:00 5.1 3 Sudeste 5 Norte 0 -- -- 97
2019-11-23 03:00:00 7.3 2 Norte 11 Noroeste 0.4 -- -- 96
2019-11-23 02:00:00 8.5 8 Noroeste 41 Oeste 0 -- -- 90
2019-11-23 01:00:00 10.8 9 Sudoeste 31 Sudoeste 0.6 -- -- 91
2019-11-23 00:00:00 11.1 17 Sur 30 Sur 0 -- -- 96
2019-11-22 23:00:00 11 13 Sur 32 Sudoeste 1.8 -- -- 97
2019-11-22 22:00:00 10.9 12 Sur 30 Sudeste 0.8 -- -- 96
2019-11-22 21:00:00 10.6 13 Sur 36 Sudeste 3.6 -- -- 96
2019-11-22 20:00:00 10.4 10 Sudeste 30 Sur 4.4 -- -- 97
2019-11-22 19:00:00 9.8 14 Sudeste 34 Sudeste 3 -- -- 96
2019-11-22 18:00:00 9.2 15 Sudeste 35 Sudeste 1.6 -- -- 95
2019-11-22 17:00:00 9.1 14 Sudeste 31 Sudeste 1 -- -- 96
2019-11-22 16:00:00 9.6 14 Sur 35 Sur 0 -- -- 88
2019-11-22 15:00:00 10.3 17 Sur 46 Sudeste 0 -- -- 79
2019-11-22 14:00:00 10.6 14 Sur 32 Sudeste 0 -- -- 80
2019-11-22 13:00:00 11.7 14 Sur 30 Sudeste 0 -- -- 76
2019-11-22 12:00:00 10.8 18 Sudeste 34 Sudeste 0 -- -- 81
2019-11-22 11:00:00 9.9 12 Sudeste 19 Sudeste 0 -- -- 90
2019-11-22 10:00:00 8.2 8 Sudeste 10 Sur 0 -- -- 100
2019-11-22 09:00:00 5 8 Sudeste 10 Sudeste 0 -- -- 100
2019-11-22 08:00:00 4.4 3 Sudeste 10 Sudeste 0 -- -- 100
2019-11-22 07:00:00 3.4 4 Sudeste 9 Sudeste 0 -- -- 100
2019-11-22 06:00:00 2.3 7 Sudeste 11 Sudeste 0 -- -- 100
2019-11-22 05:00:00 0.4 6 Sudeste 9 Sudeste 0 -- -- 100
2019-11-22 04:00:00 0 5 Sudeste 8 Sudeste 0 -- -- 99
2019-11-22 03:00:00 0.6 5 Sudeste 8 Sudeste 0 -- -- 99
2019-11-22 02:00:00 0.5 6 Sudeste 9 Sudeste 0 -- -- 99
2019-11-22 01:00:00 0 6 Sudeste 9 Sudeste 0 -- -- 100
2019-11-22 00:00:00 -1.1 6 Sudeste 9 Sudeste 0 -- -- 98
2019-11-21 23:00:00 -0.6 5 Sudeste 9 Sudeste 0 -- -- 97
2019-11-21 22:00:00 0 5 Sudeste 7 Sudeste 0 -- -- 96
2019-11-21 21:00:00 1 2 Sudeste 8 Sudeste 0 -- -- 95
2019-11-21 20:00:00 0.3 4 Sudeste 8 Sudeste 0 -- -- 96
2019-11-21 19:00:00 0.9 4 Sudeste 6 Sudeste 0 -- -- 92
2019-11-21 18:00:00 3.7 0 Calma 4 Nordeste 0 -- -- 86
2019-11-21 17:00:00 7 0 Calma 25 Noroeste 0 -- -- 74
2019-11-21 16:00:00 9.1 17 Noroeste 33 Noroeste 0 -- -- 66
2019-11-21 15:00:00 8.9 22 Noroeste 33 Noroeste 0 -- -- 69
2019-11-21 14:00:00 8.7 21 Noroeste 31 Noroeste 0 -- -- 70
2019-11-21 13:00:00 8.4 20 Oeste 32 Noroeste 0 -- -- 73
2019-11-21 12:00:00 6.6 9 Noroeste 16 Noroeste 0 -- -- 88
2019-11-21 11:00:00 4.9 13 Noroeste 20 Noroeste 0 -- -- 92
2019-11-21 10:00:00 4 12 Noroeste 18 Noroeste 0 -- -- 100
2019-11-21 09:00:00 -0.7 0 Calma 6 Sudeste 0 -- -- 100
2019-11-21 08:00:00 -- -- -- -- -- -- -- -- --
2019-11-21 07:00:00 -- -- -- -- -- -- -- -- --
2019-11-21 06:00:00 -- -- -- -- -- -- -- -- --
2019-11-21 05:00:00 -- -- -- -- -- -- -- -- --
2019-11-21 04:00:00 -- -- -- -- -- -- -- -- --
2019-11-21 03:00:00 -- -- -- -- -- -- -- -- --
2019-11-21 02:00:00 -- -- -- -- -- -- -- -- --
2019-11-21 01:00:00 -- -- -- -- -- -- -- -- --
2019-11-21 00:00:00 -- -- -- -- -- -- -- -- --
2019-11-20 23:00:00 -- -- -- -- -- -- -- -- --
2019-11-20 22:00:00 -- -- -- -- -- -- -- -- --
2019-11-20 21:00:00 -- -- -- -- -- -- -- -- --
2019-11-20 20:00:00 -- -- -- -- -- -- -- -- --
2019-11-20 19:00:00 3.6 4 Sudeste 9 Sudeste 0 -- -- 91
2019-11-20 18:00:00 6.1 6 Sur 13 Sur 0 -- -- 85
2019-11-20 17:00:00 7.6 7 Sur 15 Sur 0 -- -- 80
2019-11-20 16:00:00 8.3 6 Sudoeste 14 Sudoeste 0 -- -- 76
2019-11-20 15:00:00 9.3 8 Sur 18 Sur 0 -- -- 63
2019-11-20 14:00:00 9 6 Oeste 15 Noroeste 0 -- -- 60
2019-11-20 13:00:00 9.1 10 Noroeste 18 Noroeste 0 -- -- 61
2019-11-20 12:00:00 9.5 11 Noroeste 18 Oeste 0 -- -- 60
2019-11-20 11:00:00 7.1 5 Noroeste 8 Noroeste 0 -- -- 72
2019-11-20 10:00:00 3.2 3 Sudeste 7 Sudeste 0 -- -- 96
2019-11-20 09:00:00 -2 3 Este 8 Sudeste 0 -- -- 99
2019-11-20 08:00:00 -4.2 5 Sudeste 8 Sudeste 0 -- -- 98
2019-11-20 07:00:00 -4.7 5 Sudeste 8 Sudeste 0 -- -- 97
2019-11-20 06:00:00 -5.2 5 Sudeste 9 Sudeste 0 -- -- 97
2019-11-20 05:00:00 -5.2 6 Sudeste 8 Sudeste 0 -- -- 97
2019-11-20 04:00:00 -5.4 5 Sudeste 8 Sudeste 0 -- -- 97
2019-11-20 03:00:00 -5.3 5 Sudeste 9 Sudeste 0 -- -- 96
2019-11-20 02:00:00 -5.2 5 Sudeste 8 Sudeste 0 -- -- 97
2019-11-20 01:00:00 -5 5 Este 9 Sudeste 0 -- -- 97
2019-11-20 00:00:00 -4.8 5 Sudeste 9 Sudeste 0 -- -- 96
2019-11-19 23:00:00 -4.2 3 Sudeste 9 Este 0 -- -- 96
2019-11-19 22:00:00 -4.2 4 Sudeste 8 Sudeste 0 -- -- 96
2019-11-19 21:00:00 -3.7 6 Sudeste 9 Sudeste 0 -- -- 95
2019-11-19 20:00:00 -3.3 5 Sudeste 8 Sudeste 0 -- -- 93
2019-11-19 19:00:00 -2 4 Sudeste 8 Sudeste 0 -- -- 90
2019-11-19 18:00:00 0.3 5 Sudeste 7 Sudeste 0 -- -- 83
2019-11-19 17:00:00 4.2 2 Sudoeste 20 Oeste 0 -- -- 69
2019-11-19 16:00:00 6.5 16 Noroeste 23 Oeste 0 -- -- 65
2019-11-19 15:00:00 7.1 14 Oeste 23 Noroeste 0 -- -- 66
2019-11-19 14:00:00 6.6 19 Noroeste 25 Noroeste 0 -- -- 67
2019-11-19 13:00:00 5.9 14 Noroeste 26 Noroeste 0 -- -- 73
2019-11-19 12:00:00 4.3 19 Noroeste 29 Oeste 0 -- -- 81
2019-11-19 11:00:00 2.7 23 Noroeste 33 Noroeste 0 -- -- 85
2019-11-19 10:00:00 1.7 22 Noroeste 27 Noroeste 0 -- -- 88
2019-11-19 09:00:00 -0.5 7 Noroeste 11 Noroeste 0 -- -- 97
2019-11-19 08:00:00 -2.3 3 Norte 15 Noroeste 0 -- -- 95
2019-11-19 07:00:00 -1.2 9 Noroeste 15 Noroeste 0 -- -- 98
2019-11-19 06:00:00 -2.2 6 Noroeste 13 Noroeste 0 -- -- 98
2019-11-19 05:00:00 -2.7 4 Noroeste 11 Noroeste 0 -- -- 97
2019-11-19 04:00:00 -2 3 Noroeste 15 Oeste 0 -- -- 95
2019-11-19 03:00:00 -0.6 8 Noroeste 13 Noroeste 0 -- -- 94
2019-11-19 02:00:00 -1 7 Noroeste 10 Noroeste 0 -- -- 95
2019-11-19 01:00:00 -0.2 6 Norte 10 Noroeste 0 -- -- 92
2019-11-19 00:00:00 -0.7 4 Oeste 9 Noroeste 0 -- -- 93
2019-11-18 23:00:00 1.1 8 Noroeste 15 Noroeste 0 -- -- 90
2019-11-18 22:00:00 1.6 12 Noroeste 16 Noroeste 0 -- -- 89
2019-11-18 21:00:00 1.3 5 Noroeste 13 Noroeste 0 -- -- 93
2019-11-18 20:00:00 1.3 6 Noroeste 12 Noroeste 0 -- -- 98
2019-11-18 19:00:00 1.9 2 Noroeste 4 Noroeste 0 -- -- 94
2019-11-18 18:00:00 4.4 3 Oeste 23 Noroeste 0 -- -- 88
2019-11-18 17:00:00 5.9 18 Noroeste 27 Noroeste 0 -- -- 84
2019-11-18 16:00:00 6.3 19 Noroeste 28 Noroeste 0 -- -- 82
2019-11-18 15:00:00 5.9 19 Noroeste 27 Noroeste 0 -- -- 85
2019-11-18 14:00:00 5.6 20 Noroeste 26 Noroeste 0 -- -- 90
2019-11-18 13:00:00 6.8 17 Noroeste 23 Noroeste 0 -- -- 83
2019-11-18 12:00:00 7.3 10 Noroeste 15 Noroeste 0 -- -- 81
2019-11-18 11:00:00 5.9 9 Oeste 15 Oeste 0 -- -- 90
2019-11-18 10:00:00 4.1 6 Noroeste 18 Noroeste 0 -- -- 100
2019-11-18 09:00:00 4 6 Noroeste 15 Noroeste 0 -- -- 100
2019-11-18 08:00:00 4 11 Noroeste 17 Oeste 0 -- -- 100
2019-11-18 07:00:00 4.1 9 Noroeste 25 Noroeste 0 -- -- 100
2019-11-18 06:00:00 4.4 20 Noroeste 33 Oeste 0 -- -- 99
2019-11-18 05:00:00 4.8 19 Noroeste 32 Oeste 0 -- -- 97
2019-11-18 04:00:00 5 19 Noroeste 33 Oeste 0 -- -- 94
2019-11-18 03:00:00 5.2 18 Noroeste 26 Oeste 0 -- -- 96
2019-11-18 02:00:00 5.1 11 Noroeste 25 Noroeste 0 -- -- 96
2019-11-18 01:00:00 5.3 18 Noroeste 25 Oeste 0 -- -- 95
2019-11-18 00:00:00 5.2 15 Noroeste 25 Noroeste 0 -- -- 95
2019-11-17 23:00:00 5.5 15 Noroeste 23 Noroeste 0 -- -- 94
2019-11-17 22:00:00 5.9 16 Noroeste 28 Noroeste 0 -- -- 94
2019-11-17 21:00:00 6.3 18 Noroeste 27 Oeste 0 -- -- 91
2019-11-17 20:00:00 6.7 15 Noroeste 26 Noroeste 0 -- -- 87
2019-11-17 19:00:00 6.7 9 Noroeste 20 Oeste 0 -- -- 81
2019-11-17 18:00:00 7 13 Noroeste 23 Noroeste 0 -- -- 79
2019-11-17 17:00:00 7 15 Noroeste 32 Noroeste 0 -- -- 76
2019-11-17 16:00:00 8.2 21 Noroeste 34 Noroeste 0 -- -- 71
2019-11-17 15:00:00 8 28 Noroeste 42 Noroeste 0 -- -- 71
2019-11-17 14:00:00 6.6 19 Noroeste 36 Oeste 0 -- -- 77
2019-11-17 13:00:00 5.3 22 Noroeste 35 Noroeste 0 -- -- 81
2019-11-17 12:00:00 4.7 28 Noroeste 40 Noroeste 0 -- -- 81
2019-11-17 11:00:00 4.4 27 Noroeste 39 Oeste 0 -- -- 83
2019-11-17 10:00:00 3.3 30 Noroeste 42 Noroeste 0 -- -- 84
2019-11-17 09:00:00 2.7 23 Noroeste 36 Noroeste 0 -- -- 86
2019-11-17 08:00:00 1.8 18 Noroeste 28 Noroeste 0 -- -- 90
2019-11-17 07:00:00 1.8 19 Noroeste 32 Noroeste 0 -- -- 91
2019-11-17 06:00:00 1.6 21 Noroeste 35 Noroeste 0 -- -- 92
2019-11-17 05:00:00 1.7 21 Noroeste 32 Noroeste 0 -- -- 93
2019-11-17 04:00:00 1.3 18 Noroeste 27 Noroeste 0 -- -- 96
2019-11-17 03:00:00 1.5 18 Noroeste 26 Noroeste 0 -- -- 97
2019-11-17 02:00:00 2 13 Noroeste 20 Noroeste 0 -- -- 97
2019-11-17 01:00:00 1.9 13 Noroeste 25 Noroeste 0 -- -- 97
2019-11-17 00:00:00 2.2 17 Noroeste 27 Noroeste 0 -- -- 95
2019-11-16 23:00:00 2.2 14 Noroeste 23 Noroeste 0 -- -- 96
2019-11-16 22:00:00 1.8 10 Noroeste 19 Noroeste 0 -- -- 96
2019-11-16 21:00:00 2.1 10 Noroeste 29 Noroeste 0 -- -- 95
2019-11-16 20:00:00 2.7 16 Noroeste 49 Noroeste 0 -- -- 93
2019-11-16 19:00:00 3.4 26 Noroeste 40 Noroeste 0 -- -- 90
2019-11-16 18:00:00 3.7 27 Noroeste 40 Noroeste 0 -- -- 86
2019-11-16 17:00:00 3.3 19 Noroeste 38 Noroeste 0 -- -- 82
2019-11-16 16:00:00 3.5 30 Noroeste 40 Noroeste 0 -- -- 82
2019-11-16 15:00:00 3.2 21 Noroeste 30 Noroeste 0 -- -- 85
2019-11-16 14:00:00 3.5 19 Noroeste 31 Noroeste 0 -- -- 84
2019-11-16 13:00:00 4 18 Oeste 25 Noroeste 0 -- -- 83
2019-11-16 12:00:00 1.6 8 Noroeste 22 Oeste 0 -- -- 95
2019-11-16 11:00:00 1.1 15 Noroeste 21 Noroeste 0 -- -- 96
2019-11-16 10:00:00 0.9 13 Noroeste 18 Oeste 0 -- -- 99
2019-11-16 09:00:00 0.6 8 Noroeste 16 Noroeste 0 -- -- 99
2019-11-16 08:00:00 0.5 8 Noroeste 18 Noroeste 0 -- -- 99
2019-11-16 07:00:00 0.6 10 Noroeste 17 Noroeste 0 -- -- 98
2019-11-16 06:00:00 0.7 13 Noroeste 18 Noroeste 0 -- -- 97
2019-11-16 05:00:00 1.1 8 Oeste 25 Noroeste 0 -- -- 96
2019-11-16 04:00:00 1.3 16 Noroeste 26 Oeste 0 -- -- 97
2019-11-16 03:00:00 1.5 17 Noroeste 25 Noroeste 0 -- -- 96
2019-11-16 02:00:00 1.9 12 Noroeste 19 Noroeste 0 -- -- 96
2019-11-16 01:00:00 1.9 13 Noroeste 19 Oeste 0 -- -- 96
2019-11-16 00:00:00 1.7 17 Noroeste 29 Noroeste 0 -- -- 96
2019-11-15 23:00:00 2.1 19 Noroeste 38 Oeste 0 -- -- 94
2019-11-15 22:00:00 3.3 23 Noroeste 36 Noroeste 0 -- -- 91
2019-11-15 21:00:00 3.5 22 Noroeste 35 Noroeste 0 -- -- 91
2019-11-15 20:00:00 3.9 18 Noroeste 30 Noroeste 0 -- -- 90
2019-11-15 19:00:00 2.5 2 Este 8 Noroeste 0 -- -- 95
2019-11-15 18:00:00 3.7 0 Calma 11 Noroeste 0 -- -- 91
2019-11-15 17:00:00 4.6 9 Noroeste 19 Oeste 0 -- -- 80
2019-11-15 16:00:00 4.8 14 Noroeste 26 Noroeste 0 -- -- 77
2019-11-15 15:00:00 4.8 21 Noroeste 36 Noroeste 0 -- -- 78
2019-11-15 14:00:00 5.1 21 Noroeste 39 Oeste 0 -- -- 77
2019-11-15 13:00:00 5.3 23 Noroeste 36 Noroeste 0 -- -- 77
2019-11-15 12:00:00 5.3 23 Noroeste 34 Oeste 0 -- -- 80
2019-11-15 11:00:00 3.1 21 Noroeste 30 Noroeste 0 -- -- 91
2019-11-15 10:00:00 1.9 19 Noroeste 30 Noroeste 0 -- -- 97
2019-11-15 09:00:00 1.8 17 Noroeste 23 Oeste 0 -- -- 96
2019-11-15 08:00:00 1.8 10 Noroeste 26 Noroeste 0 -- -- 99
2019-11-15 07:00:00 1.6 19 Noroeste 25 Oeste 0 -- -- 100
2019-11-15 06:00:00 -1.1 2 Noroeste 7 Noroeste 0 -- -- 99
2019-11-15 05:00:00 -0.4 3 Sudeste 11 Noroeste 0 -- -- 99
2019-11-15 04:00:00 -0.6 8 Noroeste 13 Noroeste 0 -- -- 100
2019-11-15 03:00:00 -1.9 5 Sudeste 6 Sudeste 0 -- -- 99
2019-11-15 02:00:00 -2 3 Sudeste 10 Sudeste 0 -- -- 99
2019-11-15 01:00:00 -1.6 4 Sudeste 7 Sudeste 0 -- -- 99
2019-11-15 00:00:00 -1.7 6 Sudeste 14 Sudeste 0 -- -- 97